Aeroporto :
LOGIN :

Iscrizione | Disclaimer

   EN    FR    IT 

 










Sommario :    VFR   VFR Marginale   IFR   IFR Intensivo   IFR Molto Intensivo
Visibilità : 
Base nubi : 
>= 8 km
>= 3000ft
5 / 8 km
1000 / 3000 ft
1500m / 5 km
500 / 1000 ft
800 / 1500m
200 / 500 ft
< 800m
< 200 ft
Simboli :   Temporali  Nebbia  Neve Forte  Precipitazioni Forti  Vento > 20 kt
SIGMETs :   Varie  Temporali  Ghiacco  Turbolenza  Onda orograficha  Ceneri Vulcaniche






- Altitudine del aeroporto : 236 ft
- Codice IATA : MMX


ESMS - Malmö Sturup

ULTIMO METAR :
  • 150720Z 10018KT 9999 BKN023 07/03 Q1014

METARs OBSOLETI :
  • 150650Z 10019KT 9999 BKN023 06/03 Q1014
  • 150620Z 10016KT 9999 BKN020 06/03 Q1014
  • 150550Z 10015KT 9999 OVC018 05/03 Q1014
  • 150520Z 10017KT 9000 BKN015 05/03 Q1014
  • 150450Z 09016KT 9000 FEW020 05/02 Q1014
  • 150420Z 09015KT 9999 FEW018 05/04 Q1015

TAF TAF ESMS
Valido dal 15 a 06 ore il 16 a 06 ore UTC


150503Z 1506/1606 10015KT 9999 BKN020
BECMG 1506/1509 09018G30KT
BECMG 1514/1517 BKN008
TEMPO 1518/1606 2000 BR BKN004
BECMG 1520/1522 10012KT



MetMap, La meteo Aeronautica in un colpo d'occhio ! - Copyright ORBIFLY Dicembre 2007 - Disclaimer

ORBIFLY MET'MAP TEAM :

Programmazione e sviluppo : Alexandra Zaïnal
Concezione e sviluppo : Baudouin d'Aumeries
Co-Programmazione e sviluppo : Marc-Olivier Méhu
Supporto tecnico e logistico : Manuel Goepfert
Aiuto per la traduzione : Arnaldo La Scala

Contatto : metmap@orbifly.com




FONTI E CREDITI :

   NOAA